createdAt,value
2019-03-20T10:21:54.589Z,45
2019-03-20T13:48:42.610Z,41.8
2019-03-20T13:58:46.083Z,42.1
2019-03-20T14:08:49.584Z,41.9
2019-03-20T16:29:01.578Z,39.2
2019-03-20T16:39:05.119Z,35.9
2019-03-20T16:49:08.618Z,36.1
2019-03-20T16:59:12.133Z,36.7
2019-03-20T17:09:15.659Z,36.8
2019-03-20T17:19:20.171Z,36.9
2019-03-20T17:29:23.658Z,38.7
2019-03-20T17:39:28.141Z,38.2
2019-03-20T17:49:31.644Z,38.8
2019-03-20T17:59:35.140Z,38.9
2019-03-20T18:09:38.642Z,39.2
2019-03-20T18:19:42.157Z,39.4
2019-03-20T18:29:45.669Z,39.5
2019-03-20T18:39:49.156Z,39.2
2019-03-20T18:49:52.663Z,39.6
2019-03-20T18:59:56.206Z,39.8
2019-03-20T19:09:59.878Z,39.8
2019-03-20T19:20:03.782Z,40
2019-03-20T19:30:07.297Z,40
2019-03-20T19:40:10.793Z,40
2019-03-20T19:50:14.290Z,40.1
2019-03-20T20:00:17.802Z,40.1
2019-03-20T20:10:21.309Z,40.3
2019-03-20T20:20:24.820Z,40.5
2019-03-20T20:30:28.327Z,40.4
2019-03-20T20:40:31.842Z,40.4
2019-03-20T20:50:35.357Z,40.4
2019-03-20T21:00:38.879Z,40.6
2019-03-20T21:10:42.388Z,40.5
2019-03-20T21:20:45.912Z,40.7
2019-03-20T21:30:49.435Z,40.5
2019-03-20T21:43:33.239Z,40.6
2019-03-20T21:53:36.763Z,40.6
2019-03-20T22:03:40.288Z,40.5
2019-03-20T22:13:44.824Z,40.7
2019-03-20T22:23:48.307Z,40.7
2019-03-20T22:33:51.830Z,40.7
2019-03-20T22:43:55.315Z,40.7
2019-03-20T22:53:58.841Z,40.7
2019-03-20T23:04:02.375Z,40.9
2019-03-20T23:14:05.880Z,40.9
2019-03-20T23:24:09.397Z,40.9
2019-03-20T23:34:12.887Z,40.9
2019-03-20T23:44:16.411Z,40.9
2019-03-20T23:54:19.947Z,40.9
